sensor_id;sensor_type;location;lat;lon;timestamp;pressure;altitude;pressure_sealevel;temperature;humidity
18137;BME280;9194;42.632;23.298;2023-01-16T00:02:33;92442.63;;;0.28;100.00
18137;BME280;9194;42.632;23.298;2023-01-16T00:07:34;92451.13;;;0.29;100.00
18137;BME280;9194;42.632;23.298;2023-01-16T00:12:36;92445.50;;;0.25;100.00
18137;BME280;9194;42.632;23.298;2023-01-16T00:17:37;92440.25;;;0.19;100.00
18137;BME280;9194;42.632;23.298;2023-01-16T00:22:38;92444.56;;;0.18;100.00
18137;BME280;9194;42.632;23.298;2023-01-16T00:27:40;92431.16;;;0.16;100.00
18137;BME280;9194;42.632;23.298;2023-01-16T00:32:41;92427.13;;;0.22;100.00
18137;BME280;9194;42.632;23.298;2023-01-16T00:37:42;92418.81;;;0.20;100.00
18137;BME280;9194;42.632;23.298;2023-01-16T00:42:43;92406.81;;;0.20;100.00
18137;BME280;9194;42.632;23.298;2023-01-16T00:47:45;92402.66;;;0.19;100.00
18137;BME280;9194;42.632;23.298;2023-01-16T00:52:46;92407.47;;;0.22;100.00
18137;BME280;9194;42.632;23.298;2023-01-16T00:57:47;92411.72;;;0.30;100.00
18137;BME280;9194;42.632;23.298;2023-01-16T01:02:49;92403.22;;;0.46;100.00
18137;BME280;9194;42.632;23.298;2023-01-16T01:07:50;92396.41;;;0.61;100.00
18137;BME280;9194;42.632;23.298;2023-01-16T01:12:55;92398.81;;;0.62;100.00
18137;BME280;9194;42.632;23.298;2023-01-16T01:17:56;92390.56;;;0.52;100.00
18137;BME280;9194;42.632;23.298;2023-01-16T01:22:58;92392.31;;;0.52;100.00
18137;BME280;9194;42.632;23.298;2023-01-16T01:28:10;92390.41;;;0.46;100.00
18137;BME280;9194;42.632;23.298;2023-01-16T01:33:11;92382.75;;;0.37;100.00
18137;BME280;9194;42.632;23.298;2023-01-16T01:38:13;92387.88;;;0.37;100.00
18137;BME280;9194;42.632;23.298;2023-01-16T01:43:15;92377.63;;;0.37;100.00
18137;BME280;9194;42.632;23.298;2023-01-16T01:48:27;92359.63;;;0.23;100.00
18137;BME280;9194;42.632;23.298;2023-01-16T01:53:38;92357.97;;;0.30;100.00
18137;BME280;9194;42.632;23.298;2023-01-16T01:58:43;92361.63;;;0.35;100.00
18137;BME280;9194;42.632;23.298;2023-01-16T02:03:55;92358.31;;;0.35;100.00
18137;BME280;9194;42.632;23.298;2023-01-16T02:08:58;92359.63;;;0.54;100.00
18137;BME280;9194;42.632;23.298;2023-01-16T02:14:08;92352.31;;;0.43;100.00
18137;BME280;9194;42.632;23.298;2023-01-16T02:20:04;92350.56;;;0.43;100.00
18137;BME280;9194;42.632;23.298;2023-01-16T02:35:37;92321.00;;;0.40;100.00
18137;BME280;9194;42.632;23.298;2023-01-16T02:51:28;92317.31;;;0.66;100.00
18137;BME280;9194;42.632;23.298;2023-01-16T02:56:40;92319.31;;;0.78;100.00
18137;BME280;9194;42.632;23.298;2023-01-16T03:01:47;92303.16;;;0.78;100.00
18137;BME280;9194;42.632;23.298;2023-01-16T03:06:58;92306.88;;;0.75;100.00
18137;BME280;9194;42.632;23.298;2023-01-16T03:12:17;92301.94;;;0.66;100.00
18137;BME280;9194;42.632;23.298;2023-01-16T03:28:14;92276.06;;;0.61;100.00
18137;BME280;9194;42.632;23.298;2023-01-16T03:38:55;92265.25;;;0.51;100.00
18137;BME280;9194;42.632;23.298;2023-01-16T03:44:02;92258.25;;;0.45;100.00
18137;BME280;9194;42.632;23.298;2023-01-16T03:49:09;92239.69;;;0.43;100.00
18137;BME280;9194;42.632;23.298;2023-01-16T03:59:37;92226.16;;;0.34;100.00
18137;BME280;9194;42.632;23.298;2023-01-16T04:09:53;92237.88;;;0.28;100.00
18137;BME280;9194;42.632;23.298;2023-01-16T04:15:03;92231.34;;;0.18;100.00
18137;BME280;9194;42.632;23.298;2023-01-16T04:20:06;92235.97;;;0.22;100.00
18137;BME280;9194;42.632;23.298;2023-01-16T04:25:08;92232.00;;;0.20;100.00
18137;BME280;9194;42.632;23.298;2023-01-16T04:30:15;92234.09;;;0.16;100.00
18137;BME280;9194;42.632;23.298;2023-01-16T04:35:17;92218.91;;;0.15;100.00
18137;BME280;9194;42.632;23.298;2023-01-16T04:40:19;92214.47;;;0.09;100.00
18137;BME280;9194;42.632;23.298;2023-01-16T04:45:21;92206.16;;;0.07;100.00
18137;BME280;9194;42.632;23.298;2023-01-16T04:50:22;92207.44;;;0.11;100.00
18137;BME280;9194;42.632;23.298;2023-01-16T04:55:24;92211.25;;;0.07;100.00
18137;BME280;9194;42.632;23.298;2023-01-16T05:00:25;92203.50;;;0.00;100.00
18137;BME280;9194;42.632;23.298;2023-01-16T05:05:27;92203.50;;;0.00;100.00
18137;BME280;9194;42.632;23.298;2023-01-16T05:10:28;92212.53;;;0.11;100.00
18137;BME280;9194;42.632;23.298;2023-01-16T05:15:29;92207.56;;;0.17;100.00
18137;BME280;9194;42.632;23.298;2023-01-16T05:20:31;92199.34;;;0.22;100.00
18137;BME280;9194;42.632;23.298;2023-01-16T05:25:32;92177.41;;;0.27;100.00
18137;BME280;9194;42.632;23.298;2023-01-16T05:30:33;92191.59;;;0.30;100.00
18137;BME280;9194;42.632;23.298;2023-01-16T05:35:35;92175.53;;;0.21;100.00
18137;BME280;9194;42.632;23.298;2023-01-16T05:40:36;92162.66;;;0.29;100.00
18137;BME280;9194;42.632;23.298;2023-01-16T05:45:37;92164.09;;;0.32;100.00
18137;BME280;9194;42.632;23.298;2023-01-16T05:50:43;92172.03;;;0.37;100.00
18137;BME280;9194;42.632;23.298;2023-01-16T05:55:46;92170.34;;;0.52;100.00
18137;BME280;9194;42.632;23.298;2023-01-16T06:00:48;92171.13;;;0.53;100.00
18137;BME280;9194;42.632;23.298;2023-01-16T06:05:49;92172.09;;;0.52;100.00
18137;BME280;9194;42.632;23.298;2023-01-16T06:10:50;92157.16;;;0.40;100.00
18137;BME280;9194;42.632;23.298;2023-01-16T06:15:51;92150.56;;;0.46;100.00
18137;BME280;9194;42.632;23.298;2023-01-16T06:20:53;92145.63;;;0.59;100.00
18137;BME280;9194;42.632;23.298;2023-01-16T06:25:55;92157.50;;;0.75;100.00
18137;BME280;9194;42.632;23.298;2023-01-16T06:30:56;92165.72;;;0.85;100.00
18137;BME280;9194;42.632;23.298;2023-01-16T06:35:57;92167.50;;;0.99;100.00
18137;BME280;9194;42.632;23.298;2023-01-16T06:40:59;92160.19;;;1.11;100.00
18137;BME280;9194;42.632;23.298;2023-01-16T06:46:00;92166.75;;;1.28;100.00
18137;BME280;9194;42.632;23.298;2023-01-16T06:51:02;92156.28;;;1.59;100.00
18137;BME280;9194;42.632;23.298;2023-01-16T06:56:04;92130.16;;;1.85;100.00
18137;BME280;9194;42.632;23.298;2023-01-16T07:01:05;92142.88;;;2.14;100.00
18137;BME280;9194;42.632;23.298;2023-01-16T07:06:10;92142.84;;;2.50;100.00
18137;BME280;9194;42.632;23.298;2023-01-16T07:11:13;92149.59;;;2.58;100.00
18137;BME280;9194;42.632;23.298;2023-01-16T07:16:16;92129.78;;;2.73;100.00
18137;BME280;9194;42.632;23.298;2023-01-16T07:21:39;92130.06;;;2.84;100.00
18137;BME280;9194;42.632;23.298;2023-01-16T07:27:11;92128.06;;;2.86;100.00
18137;BME280;9194;42.632;23.298;2023-01-16T07:32:12;92135.09;;;2.71;100.00
18137;BME280;9194;42.632;23.298;2023-01-16T07:37:13;92125.72;;;2.64;100.00
18137;BME280;9194;42.632;23.298;2023-01-16T07:42:15;92114.38;;;2.73;100.00
18137;BME280;9194;42.632;23.298;2023-01-16T07:47:16;92109.03;;;3.02;100.00
18137;BME280;9194;42.632;23.298;2023-01-16T07:52:17;92110.94;;;2.94;100.00
18137;BME280;9194;42.632;23.298;2023-01-16T07:57:19;92090.28;;;3.15;100.00
18137;BME280;9194;42.632;23.298;2023-01-16T08:02:20;92083.91;;;3.45;100.00
18137;BME280;9194;42.632;23.298;2023-01-16T08:07:22;92074.75;;;3.77;100.00
18137;BME280;9194;42.632;23.298;2023-01-16T08:12:23;92065.09;;;4.05;100.00
18137;BME280;9194;42.632;23.298;2023-01-16T08:17:24;92092.84;;;4.10;100.00
18137;BME280;9194;42.632;23.298;2023-01-16T08:22:26;92091.06;;;4.37;100.00
18137;BME280;9194;42.632;23.298;2023-01-16T08:27:27;92096.03;;;4.19;100.00
18137;BME280;9194;42.632;23.298;2023-01-16T08:32:28;92098.78;;;4.17;100.00
18137;BME280;9194;42.632;23.298;2023-01-16T08:37:30;92071.69;;;4.41;100.00
18137;BME280;9194;42.632;23.298;2023-01-16T08:42:32;92053.03;;;4.45;100.00
18137;BME280;9194;42.632;23.298;2023-01-16T08:47:52;92055.22;;;4.35;100.00
18137;BME280;9194;42.632;23.298;2023-01-16T08:53:12;92055.00;;;4.37;100.00
18137;BME280;9194;42.632;23.298;2023-01-16T08:58:13;92070.91;;;4.53;100.00
18137;BME280;9194;42.632;23.298;2023-01-16T09:03:15;92052.03;;;4.73;100.00
18137;BME280;9194;42.632;23.298;2023-01-16T09:08:20;92043.91;;;4.63;100.00
18137;BME280;9194;42.632;23.298;2023-01-16T09:13:22;92046.31;;;4.64;100.00
18137;BME280;9194;42.632;23.298;2023-01-16T09:18:41;92045.50;;;4.50;100.00
18137;BME280;9194;42.632;23.298;2023-01-16T09:23:43;92023.69;;;4.66;100.00
18137;BME280;9194;42.632;23.298;2023-01-16T09:28:44;92011.38;;;4.81;100.00
18137;BME280;9194;42.632;23.298;2023-01-16T09:33:45;92014.47;;;5.16;100.00
18137;BME280;9194;42.632;23.298;2023-01-16T09:38:49;92020.22;;;5.18;100.00
18137;BME280;9194;42.632;23.298;2023-01-16T09:43:50;92015.66;;;5.07;100.00
18137;BME280;9194;42.632;23.298;2023-01-16T09:48:57;91997.97;;;5.24;100.00
18137;BME280;9194;42.632;23.298;2023-01-16T09:54:01;91967.00;;;5.24;100.00
18137;BME280;9194;42.632;23.298;2023-01-16T09:59:45;91991.72;;;4.93;100.00
18137;BME280;9194;42.632;23.298;2023-01-16T10:04:48;91972.13;;;5.30;100.00
18137;BME280;9194;42.632;23.298;2023-01-16T10:30:34;91923.69;;;5.70;100.00
18137;BME280;9194;42.632;23.298;2023-01-16T10:35:39;91892.59;;;6.33;100.00
18137;BME280;9194;42.632;23.298;2023-01-16T10:40:43;91872.13;;;6.32;100.00
18137;BME280;9194;42.632;23.298;2023-01-16T10:45:46;91899.53;;;6.14;98.78
18137;BME280;9194;42.632;23.298;2023-01-16T10:51:24;91881.22;;;6.16;93.85
18137;BME280;9194;42.632;23.298;2023-01-16T10:56:28;91863.63;;;6.06;95.05
18137;BME280;9194;42.632;23.298;2023-01-16T11:01:30;91853.59;;;6.16;96.24
18137;BME280;9194;42.632;23.298;2023-01-16T11:06:32;91840.84;;;6.22;93.29
18137;BME280;9194;42.632;23.298;2023-01-16T11:11:36;91838.75;;;6.30;93.58
18137;BME280;9194;42.632;23.298;2023-01-16T11:16:56;91830.34;;;6.16;95.42
18137;BME280;9194;42.632;23.298;2023-01-16T11:22:24;91817.19;;;6.00;97.16
18137;BME280;9194;42.632;23.298;2023-01-16T11:27:30;91816.69;;;6.09;90.97
18137;BME280;9194;42.632;23.298;2023-01-16T11:32:35;91811.69;;;6.33;90.37
18137;BME280;9194;42.632;23.298;2023-01-16T11:37:39;91818.44;;;6.15;89.71
18137;BME280;9194;42.632;23.298;2023-01-16T11:42:57;91811.91;;;6.31;91.17
18137;BME280;9194;42.632;23.298;2023-01-16T11:48:18;91784.06;;;6.33;92.09
18137;BME280;9194;42.632;23.298;2023-01-16T11:53:31;91772.84;;;6.57;91.45
18137;BME280;9194;42.632;23.298;2023-01-16T12:04:22;91757.69;;;6.43;94.30
18137;BME280;9194;42.632;23.298;2023-01-16T12:09:43;91767.50;;;6.52;95.64
18137;BME280;9194;42.632;23.298;2023-01-16T12:14:53;91753.50;;;6.60;94.33
18137;BME280;9194;42.632;23.298;2023-01-16T12:41:19;91716.19;;;6.97;89.58
18137;BME280;9194;42.632;23.298;2023-01-16T12:52:02;91715.81;;;6.52;93.70
18137;BME280;9194;42.632;23.298;2023-01-16T13:02:27;91684.03;;;6.52;98.54
18137;BME280;9194;42.632;23.298;2023-01-16T13:07:44;91685.47;;;6.59;98.58
18137;BME280;9194;42.632;23.298;2023-01-16T13:12:47;91677.59;;;6.54;99.99
18137;BME280;9194;42.632;23.298;2023-01-16T13:18:18;91658.16;;;6.22;100.00
18137;BME280;9194;42.632;23.298;2023-01-16T13:23:24;91639.16;;;6.16;100.00
18137;BME280;9194;42.632;23.298;2023-01-16T13:28:43;91639.72;;;6.00;100.00
18137;BME280;9194;42.632;23.298;2023-01-16T13:33:49;91628.53;;;6.06;100.00
18137;BME280;9194;42.632;23.298;2023-01-16T13:44:33;91653.38;;;5.53;100.00
18137;BME280;9194;42.632;23.298;2023-01-16T13:50:07;91651.78;;;5.52;100.00
18137;BME280;9194;42.632;23.298;2023-01-16T13:55:20;91633.59;;;5.65;100.00
18137;BME280;9194;42.632;23.298;2023-01-16T14:00:27;91614.16;;;5.44;100.00
18137;BME280;9194;42.632;23.298;2023-01-16T14:15:47;91637.69;;;5.11;100.00
18137;BME280;9194;42.632;23.298;2023-01-16T14:26:22;91642.22;;;4.66;100.00
18137;BME280;9194;42.632;23.298;2023-01-16T14:37:01;91654.25;;;4.47;100.00
18137;BME280;9194;42.632;23.298;2023-01-16T14:42:16;91633.22;;;4.50;100.00
18137;BME280;9194;42.632;23.298;2023-01-16T14:47:45;91625.31;;;4.45;100.00
18137;BME280;9194;42.632;23.298;2023-01-16T14:59:11;91625.19;;;4.34;100.00
18137;BME280;9194;42.632;23.298;2023-01-16T15:04:16;91619.97;;;4.16;100.00
18137;BME280;9194;42.632;23.298;2023-01-16T15:09:19;91599.91;;;4.24;100.00
18137;BME280;9194;42.632;23.298;2023-01-16T15:14:22;91611.59;;;4.20;100.00
18137;BME280;9194;42.632;23.298;2023-01-16T15:19:27;91603.16;;;4.13;100.00
18137;BME280;9194;42.632;23.298;2023-01-16T15:24:52;91610.47;;;4.09;100.00
18137;BME280;9194;42.632;23.298;2023-01-16T15:30:02;91615.91;;;4.01;100.00
18137;BME280;9194;42.632;23.298;2023-01-16T15:35:15;91598.28;;;3.98;100.00
18137;BME280;9194;42.632;23.298;2023-01-16T15:40:24;91616.31;;;3.92;100.00
18137;BME280;9194;42.632;23.298;2023-01-16T15:45:26;91637.56;;;3.81;100.00
18137;BME280;9194;42.632;23.298;2023-01-16T15:51:00;91636.06;;;3.66;100.00
18137;BME280;9194;42.632;23.298;2023-01-16T15:56:09;91630.91;;;3.66;100.00
18137;BME280;9194;42.632;23.298;2023-01-16T16:01:28;91634.47;;;3.65;100.00
18137;BME280;9194;42.632;23.298;2023-01-16T16:06:30;91639.47;;;3.47;100.00
18137;BME280;9194;42.632;23.298;2023-01-16T16:11:38;91660.22;;;3.52;100.00
18137;BME280;9194;42.632;23.298;2023-01-16T16:17:04;91627.78;;;3.51;100.00
18137;BME280;9194;42.632;23.298;2023-01-16T16:22:24;91611.19;;;3.41;100.00
18137;BME280;9194;42.632;23.298;2023-01-16T16:27:44;91609.44;;;3.28;100.00
18137;BME280;9194;42.632;23.298;2023-01-16T16:32:45;91591.00;;;3.44;100.00
18137;BME280;9194;42.632;23.298;2023-01-16T16:37:47;91579.16;;;3.43;100.00
18137;BME280;9194;42.632;23.298;2023-01-16T16:42:56;91563.91;;;3.42;100.00
18137;BME280;9194;42.632;23.298;2023-01-16T16:48:21;91570.47;;;3.31;100.00
18137;BME280;9194;42.632;23.298;2023-01-16T16:53:25;91570.06;;;3.34;100.00
18137;BME280;9194;42.632;23.298;2023-01-16T16:58:27;91552.06;;;3.34;100.00
18137;BME280;9194;42.632;23.298;2023-01-16T17:03:30;91549.91;;;3.31;100.00
18137;BME280;9194;42.632;23.298;2023-01-16T17:08:32;91557.03;;;3.29;100.00
18137;BME280;9194;42.632;23.298;2023-01-16T17:13:33;91571.84;;;3.34;100.00
18137;BME280;9194;42.632;23.298;2023-01-16T17:18:34;91543.00;;;3.25;100.00
18137;BME280;9194;42.632;23.298;2023-01-16T17:23:37;91537.56;;;2.95;100.00
18137;BME280;9194;42.632;23.298;2023-01-16T17:28:38;91544.66;;;3.06;100.00
18137;BME280;9194;42.632;23.298;2023-01-16T17:33:40;91555.19;;;2.78;100.00
18137;BME280;9194;42.632;23.298;2023-01-16T17:38:41;91554.41;;;2.78;100.00
18137;BME280;9194;42.632;23.298;2023-01-16T17:43:43;91564.50;;;2.46;100.00
18137;BME280;9194;42.632;23.298;2023-01-16T17:49:02;91532.91;;;2.53;100.00
18137;BME280;9194;42.632;23.298;2023-01-16T17:54:04;91549.28;;;2.45;100.00
18137;BME280;9194;42.632;23.298;2023-01-16T17:59:05;91565.53;;;2.32;100.00
18137;BME280;9194;42.632;23.298;2023-01-16T18:04:08;91561.94;;;2.33;100.00
18137;BME280;9194;42.632;23.298;2023-01-16T18:09:12;91541.81;;;2.30;100.00
18137;BME280;9194;42.632;23.298;2023-01-16T18:14:15;91544.97;;;2.26;100.00
18137;BME280;9194;42.632;23.298;2023-01-16T18:19:35;91520.47;;;2.10;100.00
18137;BME280;9194;42.632;23.298;2023-01-16T18:24:38;91509.22;;;2.24;100.00
18137;BME280;9194;42.632;23.298;2023-01-16T18:30:05;91512.59;;;2.25;100.00
18137;BME280;9194;42.632;23.298;2023-01-16T18:35:08;91539.44;;;2.16;100.00
18137;BME280;9194;42.632;23.298;2023-01-16T18:40:12;91538.63;;;2.22;100.00
18137;BME280;9194;42.632;23.298;2023-01-16T18:45:32;91549.13;;;2.27;100.00
18137;BME280;9194;42.632;23.298;2023-01-16T18:50:52;91539.84;;;2.19;100.00
18137;BME280;9194;42.632;23.298;2023-01-16T18:56:18;91489.84;;;2.28;100.00
18137;BME280;9194;42.632;23.298;2023-01-16T19:01:39;91507.81;;;2.35;100.00
18137;BME280;9194;42.632;23.298;2023-01-16T19:07:02;91509.81;;;2.13;100.00
18137;BME280;9194;42.632;23.298;2023-01-16T19:12:05;91499.75;;;2.12;100.00
18137;BME280;9194;42.632;23.298;2023-01-16T19:17:08;91496.78;;;2.01;100.00
18137;BME280;9194;42.632;23.298;2023-01-16T19:22:09;91520.88;;;2.00;100.00
18137;BME280;9194;42.632;23.298;2023-01-16T19:27:11;91525.22;;;2.13;100.00
18137;BME280;9194;42.632;23.298;2023-01-16T19:32:12;91531.53;;;2.24;100.00
18137;BME280;9194;42.632;23.298;2023-01-16T19:37:13;91523.41;;;2.40;100.00
18137;BME280;9194;42.632;23.298;2023-01-16T19:42:15;91500.91;;;2.42;100.00
18137;BME280;9194;42.632;23.298;2023-01-16T19:47:34;91528.00;;;2.38;100.00
18137;BME280;9194;42.632;23.298;2023-01-16T19:52:35;91493.59;;;2.39;100.00
18137;BME280;9194;42.632;23.298;2023-01-16T19:57:37;91519.50;;;2.31;100.00
18137;BME280;9194;42.632;23.298;2023-01-16T20:02:39;91509.81;;;2.13;100.00
18137;BME280;9194;42.632;23.298;2023-01-16T20:07:41;91483.19;;;2.08;100.00
18137;BME280;9194;42.632;23.298;2023-01-16T20:12:42;91479.44;;;2.03;100.00
18137;BME280;9194;42.632;23.298;2023-01-16T20:17:44;91458.91;;;2.03;100.00
18137;BME280;9194;42.632;23.298;2023-01-16T20:22:45;91463.25;;;1.96;100.00
18137;BME280;9194;42.632;23.298;2023-01-16T20:27:47;91403.25;;;1.78;100.00
18137;BME280;9194;42.632;23.298;2023-01-16T20:32:48;91480.59;;;1.81;100.00
18137;BME280;9194;42.632;23.298;2023-01-16T20:37:49;91464.00;;;2.17;100.00
18137;BME280;9194;42.632;23.298;2023-01-16T20:42:51;91446.22;;;2.22;100.00
18137;BME280;9194;42.632;23.298;2023-01-16T20:48:10;91468.75;;;1.93;100.00
18137;BME280;9194;42.632;23.298;2023-01-16T20:53:13;91454.38;;;1.86;100.00
18137;BME280;9194;42.632;23.298;2023-01-16T20:58:15;91478.63;;;1.70;100.00
18137;BME280;9194;42.632;23.298;2023-01-16T21:03:16;91476.66;;;1.98;100.00
18137;BME280;9194;42.632;23.298;2023-01-16T21:08:21;91458.50;;;2.00;100.00
18137;BME280;9194;42.632;23.298;2023-01-16T21:13:24;91440.75;;;1.85;100.00
18137;BME280;9194;42.632;23.298;2023-01-16T21:18:45;91438.94;;;2.19;100.00
18137;BME280;9194;42.632;23.298;2023-01-16T21:24:05;91446.16;;;2.61;100.00
18137;BME280;9194;42.632;23.298;2023-01-16T21:29:06;91431.09;;;3.16;100.00
18137;BME280;9194;42.632;23.298;2023-01-16T21:34:08;91447.94;;;3.75;100.00
18137;BME280;9194;42.632;23.298;2023-01-16T21:39:10;91450.66;;;3.17;100.00
18137;BME280;9194;42.632;23.298;2023-01-16T21:44:11;91414.00;;;3.59;100.00
18137;BME280;9194;42.632;23.298;2023-01-16T21:49:32;91398.16;;;5.15;100.00
18137;BME280;9194;42.632;23.298;2023-01-16T21:54:33;91354.69;;;6.41;100.00
18137;BME280;9194;42.632;23.298;2023-01-16T21:59:34;91373.31;;;7.07;99.07
18137;BME280;9194;42.632;23.298;2023-01-16T22:04:36;91399.31;;;4.52;100.00
18137;BME280;9194;42.632;23.298;2023-01-16T22:09:42;91380.97;;;3.32;100.00
18137;BME280;9194;42.632;23.298;2023-01-16T22:14:44;91370.94;;;3.98;100.00
18137;BME280;9194;42.632;23.298;2023-01-16T22:20:04;91390.00;;;5.59;100.00
18137;BME280;9194;42.632;23.298;2023-01-16T22:25:27;91337.34;;;6.65;100.00
18137;BME280;9194;42.632;23.298;2023-01-16T22:30:30;91332.53;;;7.25;96.07
18137;BME280;9194;42.632;23.298;2023-01-16T22:35:31;91338.22;;;7.56;92.81
18137;BME280;9194;42.632;23.298;2023-01-16T22:40:32;91317.81;;;7.59;92.42
18137;BME280;9194;42.632;23.298;2023-01-16T22:45:36;91313.13;;;7.73;92.26
18137;BME280;9194;42.632;23.298;2023-01-16T22:51:03;91305.09;;;7.91;90.94
18137;BME280;9194;42.632;23.298;2023-01-16T22:56:06;91269.53;;;8.03;89.30
18137;BME280;9194;42.632;23.298;2023-01-16T23:01:12;91298.31;;;8.07;89.91
18137;BME280;9194;42.632;23.298;2023-01-16T23:06:13;91295.09;;;8.16;88.46
18137;BME280;9194;42.632;23.298;2023-01-16T23:11:31;91297.81;;;7.55;89.54
18137;BME280;9194;42.632;23.298;2023-01-16T23:16:35;91324.22;;;4.97;100.00
18137;BME280;9194;42.632;23.298;2023-01-16T23:21:37;91303.72;;;4.24;100.00
18137;BME280;9194;42.632;23.298;2023-01-16T23:26:38;91306.00;;;3.96;100.00
18137;BME280;9194;42.632;23.298;2023-01-16T23:31:43;91310.56;;;3.76;100.00
18137;BME280;9194;42.632;23.298;2023-01-16T23:36:45;91307.97;;;3.76;100.00
18137;BME280;9194;42.632;23.298;2023-01-16T23:41:51;91283.44;;;3.55;100.00
18137;BME280;9194;42.632;23.298;2023-01-16T23:47:18;91302.50;;;3.47;100.00
18137;BME280;9194;42.632;23.298;2023-01-16T23:52:27;91323.44;;;3.51;100.00
18137;BME280;9194;42.632;23.298;2023-01-16T23:57:31;91307.38;;;3.30;100.00
